Time;durP1;ratioP1;P1;durP2;ratioP2;P2;SDS_P1;SDS_P2;PMS_P1;PMS_P2;Temp;Humidity;BMP_temperature;BMP_pressure;BME280_temperature;BME280_humidity;BME280_pressure;Samples;Min_cycle;Max_cycle;Signal;HPM_P1;HPM_P2
2023/05/05 00:00:30;;;;;;;;;0.00;0.00;;;;;19.95;50.43;101125.88;2071873;28;48178;-61
2023/05/05 00:01:34;;;;;;;;;0.00;0.00;;;;;19.94;50.61;101118.72;2071633;28;45559;-63
2023/05/05 00:02:34;;;;;;;;;0.00;0.00;;;;;19.92;50.50;101120.63;2071436;28;45834;-61
2023/05/05 00:03:35;;;;;;;;;0.00;0.00;;;;;19.90;50.69;101114.47;2072308;28;45561;-60
2023/05/05 00:04:35;;;;;;;;;0.33;0.00;;;;;19.89;51.10;101120.78;2071910;28;45604;-58
2023/05/05 00:05:35;;;;;;;;;0.00;0.00;;;;;19.89;50.87;101120.78;2071894;28;46071;-61
2023/05/05 00:06:36;;;;;;;;;0.67;0.00;;;;;19.89;50.54;101121.66;2063403;28;46339;-60
2023/05/05 00:07:36;;;;;;;;;0.00;0.00;;;;;19.89;51.51;101116.28;2055216;28;46566;-61
2023/05/05 00:08:37;;;;;;;;;0.00;0.00;;;;;19.90;50.80;101122.53;2063123;28;46024;-61
2023/05/05 00:09:37;;;;;;;;;0.00;0.00;;;;;19.89;50.83;101121.66;2070921;28;45650;-59
2023/05/05 00:10:37;;;;;;;;;0.00;0.00;;;;;19.90;51.00;101117.16;2071969;28;46279;-60
2023/05/05 00:11:38;;;;;;;;;5.00;1.00;;;;;19.91;51.05;101118.88;2071727;28;45036;-61
2023/05/05 00:12:38;;;;;;;;;0.00;0.00;;;;;19.91;51.07;101116.19;2072223;28;45147;-60
2023/05/05 00:13:38;;;;;;;;;0.00;0.00;;;;;19.91;50.97;101110.81;2072149;28;45551;-61
2023/05/05 00:14:39;;;;;;;;;0.00;0.00;;;;;19.91;50.95;101108.13;2071310;28;47078;-61
2023/05/05 00:15:41;;;;;;;;;0.67;0.67;;;;;19.89;51.51;101104.63;2072619;28;45505;-61
2023/05/05 00:16:41;;;;;;;;;0.00;0.00;;;;;19.88;51.16;101108.28;2071616;28;46588;-62
2023/05/05 00:17:42;;;;;;;;;0.00;0.00;;;;;19.88;51.13;101108.28;2071683;28;46853;-61
2023/05/05 00:18:43;;;;;;;;;0.00;0.00;;;;;19.87;51.32;101101.16;2072170;28;46650;-61
2023/05/05 00:19:43;;;;;;;;;0.00;0.00;;;;;19.86;51.32;101112.91;2071184;28;46807;-62
2023/05/05 00:20:46;;;;;;;;;1.33;1.00;;;;;19.86;51.49;101113.75;2072007;28;45998;-61
2023/05/05 00:21:46;;;;;;;;;1.25;0.25;;;;;19.86;51.40;101110.19;2071267;28;45837;-62
2023/05/05 00:22:46;;;;;;;;;0.00;0.00;;;;;19.86;51.34;101112.91;2071442;28;46397;-61
2023/05/05 00:23:46;;;;;;;;;0.00;0.00;;;;;19.85;51.68;101117.41;2071248;28;45982;-61
2023/05/05 00:24:47;;;;;;;;;0.00;0.00;;;;;19.86;51.63;101112.91;2071622;28;46278;-62
2023/05/05 00:25:47;;;;;;;;;0.00;0.00;;;;;19.85;51.41;101111.16;2072177;28;45651;-62
2023/05/05 00:26:48;;;;;;;;;0.67;0.00;;;;;19.85;51.65;101114.72;2072090;28;46436;-62
2023/05/05 00:27:48;;;;;;;;;0.00;0.00;;;;;19.84;51.62;101112.97;2071958;28;45896;-63
2023/05/05 00:28:48;;;;;;;;;2.00;1.00;;;;;19.85;51.62;101113.84;2072118;28;45215;-63
2023/05/05 00:29:49;;;;;;;;;1.67;0.67;;;;;19.85;51.92;101111.16;2071560;28;46888;-62
2023/05/05 00:30:50;;;;;;;;;0.00;0.00;;;;;19.85;52.03;101111.16;2072476;28;45566;-60
2023/05/05 00:31:51;;;;;;;;;0.00;0.00;;;;;19.85;51.85;101111.16;2072388;28;45297;-62
2023/05/05 00:32:53;;;;;;;;;0.00;0.00;;;;;19.84;51.36;101109.41;2080084;28;45540;-60
2023/05/05 00:33:53;;;;;;;;;2.00;0.00;;;;;19.84;51.29;101106.72;2079523;28;45712;-61
2023/05/05 00:34:53;;;;;;;;;0.00;0.00;;;;;19.82;51.75;101097.81;2072284;28;45467;-62
2023/05/05 00:35:54;;;;;;;;;0.00;0.00;;;;;19.81;51.50;101101.47;2071605;28;46481;-61
2023/05/05 00:36:54;;;;;;;;;0.00;0.00;;;;;19.81;51.16;101101.47;2071885;28;46215;-61
2023/05/05 00:37:55;;;;;;;;;0.00;0.00;;;;;19.79;51.53;101098.00;2071003;28;47082;-61
2023/05/05 00:38:55;;;;;;;;;0.33;0.00;;;;;19.78;51.67;101090.88;2071329;28;46059;-62
2023/05/05 00:39:56;;;;;;;;;1.00;1.00;;;;;19.77;51.78;101095.41;2072216;28;45726;-61
2023/05/05 00:40:56;;;;;;;;;0.00;0.00;;;;;19.76;51.91;101095.47;2070914;28;46149;-61
2023/05/05 00:41:56;;;;;;;;;1.00;0.00;;;;;19.75;51.69;101093.75;2063062;28;46411;-60
2023/05/05 00:42:58;;;;;;;;;0.00;0.00;;;;;19.73;52.12;101093.84;2070959;28;45718;-61
2023/05/05 00:43:58;;;;;;;;;0.00;0.00;;;;;19.74;52.45;101094.69;2071477;28;46524;-59
2023/05/05 00:44:59;;;;;;;;;0.00;0.00;;;;;19.74;52.37;101094.69;2071537;28;46042;-62
2023/05/05 00:46:02;;;;;;;;;1.33;0.67;;;;;19.72;52.44;101086.72;2071836;28;45522;-60
2023/05/05 00:47:03;;;;;;;;;0.00;0.00;;;;;19.71;52.30;101089.47;2071851;28;45629;-62
2023/05/05 00:48:04;;;;;;;;;0.00;0.00;;;;;19.69;52.44;101085.06;2071705;28;45414;-62
2023/05/05 00:49:05;;;;;;;;;1.00;1.00;;;;;19.68;52.57;101088.66;2063656;28;46656;-60
2023/05/05 00:50:08;;;;;;;;;2.00;0.00;;;;;19.70;52.06;101085.94;2066931;28;46621;-61
2023/05/05 00:51:09;;;;;;;;;0.75;0.75;;;;;19.68;52.29;101085.97;2071779;28;46307;-61
2023/05/05 00:52:10;;;;;;;;;1.50;0.00;;;;;19.66;52.39;101087.88;2071663;28;46548;-62
2023/05/05 00:53:11;;;;;;;;;2.00;2.00;;;;;19.66;52.63;101092.41;2071635;28;46528;-62
2023/05/05 00:54:11;;;;;;;;;1.25;1.25;;;;;19.64;52.45;101084.41;2071585;28;46668;-62
2023/05/05 00:55:12;;;;;;;;;0.00;0.00;;;;;19.64;52.76;101092.50;2061999;28;46412;-60
2023/05/05 00:56:13;;;;;;;;;3.00;2.00;;;;;19.64;52.93;101097.00;2063873;28;45487;-61
2023/05/05 00:57:13;;;;;;;;;1.75;1.25;;;;;19.63;52.63;101106.91;2071835;28;46055;-60
2023/05/05 00:58:14;;;;;;;;;0.00;0.00;;;;;19.62;52.52;101101.59;2071672;28;45828;-61
2023/05/05 00:59:14;;;;;;;;;0.67;0.67;;;;;19.62;52.83;101107.88;2071256;28;45883;-61
2023/05/05 01:00:15;;;;;;;;;0.00;0.00;;;;;19.61;52.63;101106.13;2071385;28;45259;-61
2023/05/05 01:01:16;;;;;;;;;0.25;0.25;;;;;19.61;52.88;101105.25;2072123;28;46112;-62
2023/05/05 01:02:17;;;;;;;;;0.00;0.00;;;;;19.60;52.59;101104.38;2079264;28;45314;-60
2023/05/05 01:03:18;;;;;;;;;0.00;0.00;;;;;19.59;52.47;101101.78;2079381;28;45520;-61
2023/05/05 01:04:18;;;;;;;;;1.00;1.00;;;;;19.56;52.80;101105.47;2063610;28;46219;-61
2023/05/05 01:05:21;;;;;;;;;2.00;1.00;;;;;19.55;52.80;101113.63;2070831;28;46549;-62
2023/05/05 01:06:44;;;;;;;;;1.00;1.00;;;;;19.52;53.39;101105.69;2071524;28;46303;-61
2023/05/05 01:08:09;;;;;;;;;0.00;0.00;;;;;19.49;53.07;101106.75;2070966;28;45072;-62
2023/05/05 01:09:35;;;;;;;;;0.25;0.00;;;;;19.46;53.31;101096.13;2071498;28;45878;-61
2023/05/05 01:10:47;;;;;;;;;2.00;1.75;;;;;19.47;53.58;101099.69;2071456;28;46009;-61
2023/05/05 01:12:00;;;;;;;;;0.25;0.25;;;;;19.45;53.49;101107.84;2072055;28;45795;-61
2023/05/05 01:13:30;;;;;;;;;0.00;0.00;;;;;19.44;53.53;101105.22;2072104;28;46133;-62
2023/05/05 01:14:39;;;;;;;;;1.50;0.00;;;;;19.43;53.41;101115.13;2071172;28;46213;-61
2023/05/05 01:15:52;;;;;;;;;1.25;0.00;;;;;19.41;53.52;101114.31;2069294;28;45557;-60
2023/05/05 01:16:58;;;;;;;;;0.75;0.75;;;;;19.40;53.65;101115.28;2065937;28;46470;-60
2023/05/05 01:18:10;;;;;;;;;0.75;0.75;;;;;19.38;53.84;101109.97;2075005;28;45155;-62
2023/05/05 01:19:35;;;;;;;;;1.50;0.25;;;;;19.39;53.89;101110.84;2078142;28;45302;-62
2023/05/05 01:20:48;;;;;;;;;0.00;0.00;;;;;19.38;53.99;101106.41;2072450;28;46040;-60
2023/05/05 01:22:01;;;;;;;;;0.00;0.00;;;;;19.37;53.73;101104.69;2064844;28;45788;-62
2023/05/05 01:23:05;;;;;;;;;0.00;0.00;;;;;19.36;53.86;101105.63;2070815;28;46750;-60
2023/05/05 01:24:43;;;;;;;;;2.25;0.50;;;;;19.37;54.13;101107.38;2072990;28;46396;-61
2023/05/05 01:25:53;;;;;;;;;0.00;0.00;;;;;19.36;54.45;101102.94;2073141;28;45769;-61
2023/05/05 01:27:17;;;;;;;;;0.25;0.00;;;;;19.34;54.30;101108.41;2073337;28;46063;-62
2023/05/05 01:28:26;;;;;;;;;0.50;0.50;;;;;19.35;54.04;101101.22;2070105;28;46501;-60
2023/05/05 01:29:54;;;;;;;;;1.00;0.75;;;;;19.36;54.10;101092.19;2069549;28;46076;-61
2023/05/05 01:31:28;;;;;;;;;0.50;0.50;;;;;19.36;54.32;101094.88;2073152;28;45782;-62
2023/05/05 01:32:32;;;;;;;;;1.50;1.50;;;;;19.34;54.14;101094.97;2073171;28;45213;-61
2023/05/05 01:33:57;;;;;;;;;2.00;0.50;;;;;19.34;54.25;101094.97;2080836;28;45806;-61
2023/05/05 01:35:07;;;;;;;;;1.00;1.00;;;;;19.36;55.10;101097.56;2074985;28;45983;-59
2023/05/05 01:36:12;;;;;;;;;0.25;0.25;;;;;19.35;54.52;101093.13;2072077;28;45804;-60
2023/05/05 01:37:26;;;;;;;;;1.00;0.00;;;;;19.35;54.54;101090.44;2072944;28;45265;-62
2023/05/05 01:38:36;;;;;;;;;1.25;0.50;;;;;19.35;54.34;101087.75;2072559;28;45778;-61
2023/05/05 01:39:41;;;;;;;;;0.00;0.00;;;;;19.33;54.41;101087.84;2073087;28;45517;-61
2023/05/05 01:40:50;;;;;;;;;0.00;0.00;;;;;19.32;54.67;101083.41;2073293;28;46359;-61
2023/05/05 01:41:55;;;;;;;;;0.00;0.00;;;;;19.32;54.55;101082.53;2072914;28;45682;-58
2023/05/05 01:42:59;;;;;;;;;0.00;0.00;;;;;19.29;54.57;101078.16;2072939;28;46286;-61
2023/05/05 01:44:03;;;;;;;;;0.25;0.25;;;;;19.30;54.39;101079.91;2073411;28;46219;-59
2023/05/05 01:45:08;;;;;;;;;1.00;1.00;;;;;19.29;54.34;101082.66;2072782;28;46764;-61
2023/05/05 01:46:09;;;;;;;;;0.50;0.50;;;;;19.27;54.38;101076.50;2073607;28;45777;-61
2023/05/05 01:47:17;;;;;;;;;0.00;0.00;;;;;19.25;54.30;101078.41;2073272;28;45137;-60
2023/05/05 01:48:20;;;;;;;;;0.75;0.75;;;;;19.22;54.65;101076.75;2073499;28;45732;-61
2023/05/05 01:49:21;;;;;;;;;1.25;0.75;;;;;19.21;54.83;101076.84;2072746;28;46442;-59
2023/05/05 01:50:23;;;;;;;;;1.00;1.00;;;;;19.20;55.08;101075.97;2072693;28;46074;-62
2023/05/05 01:51:26;;;;;;;;;0.00;0.00;;;;;19.18;55.16;101069.78;2072691;28;46133;-60
2023/05/05 01:52:28;;;;;;;;;0.50;0.50;;;;;19.16;54.78;101074.38;2073132;28;46159;-60
2023/05/05 01:53:30;;;;;;;;;1.00;0.00;;;;;19.15;55.34;101072.63;2073087;28;46003;-62
2023/05/05 01:54:33;;;;;;;;;1.25;1.25;;;;;19.15;55.15;101071.75;2072602;28;45557;-62
2023/05/05 01:55:35;;;;;;;;;1.75;1.75;;;;;19.13;55.19;101074.53;2071680;28;46721;-61
2023/05/05 01:56:38;;;;;;;;;1.00;1.00;;;;;19.13;55.52;101076.34;2067351;28;46616;-62
2023/05/05 01:57:41;;;;;;;;;2.00;2.00;;;;;19.11;55.51;101069.22;2072979;28;45704;-61
2023/05/05 01:58:44;;;;;;;;;1.00;0.25;;;;;19.10;55.61;101069.31;2072907;28;46568;-61
2023/05/05 01:59:45;;;;;;;;;0.50;0.50;;;;;19.09;55.43;101060.38;2080672;28;45860;-61
2023/05/05 02:00:46;;;;;;;;;1.00;1.00;;;;;19.09;55.13;101065.75;2081644;28;46309;-63
2023/05/05 02:01:48;;;;;;;;;0.00;0.00;;;;;19.08;55.59;101069.41;2072853;28;46188;-62
2023/05/05 02:02:49;;;;;;;;;1.00;1.00;;;;;19.08;55.41;101068.53;2073360;28;46898;-61
2023/05/05 02:03:51;;;;;;;;;0.00;0.00;;;;;19.08;55.31;101076.59;2072909;28;47797;-63
2023/05/05 02:04:55;;;;;;;;;4.25;1.00;;;;;19.06;56.19;101078.50;2072740;28;46478;-59
2023/05/05 02:05:58;;;;;;;;;1.00;0.00;;;;;19.05;55.93;101084.81;2072993;28;45719;-60
2023/05/05 02:07:01;;;;;;;;;1.50;1.00;;;;;19.04;55.71;101083.94;2064569;28;46098;-59
2023/05/05 02:08:02;;;;;;;;;0.00;0.00;;;;;19.05;55.64;101087.50;2068034;28;45611;-60
2023/05/05 02:09:04;;;;;;;;;1.75;1.00;;;;;19.04;55.97;101089.31;2072912;28;45233;-62
2023/05/05 02:10:06;;;;;;;;;3.75;2.00;;;;;19.04;55.93;101089.31;2071994;28;45832;-61
2023/05/05 02:11:09;;;;;;;;;2.25;2.25;;;;;19.04;55.98;101092.00;2073191;28;46385;-61
2023/05/05 02:12:10;;;;;;;;;1.00;1.00;;;;;19.04;55.75;101080.38;2072946;28;46522;-60
2023/05/05 02:13:12;;;;;;;;;0.00;0.00;;;;;19.04;56.14;101089.31;2072401;28;46400;-61
2023/05/05 02:14:15;;;;;;;;;1.00;1.00;;;;;19.02;55.97;101087.66;2072188;28;47250;-58
2023/05/05 02:15:16;;;;;;;;;1.00;1.00;;;;;19.01;56.43;101085.91;2072203;28;46859;-61
2023/05/05 02:16:17;;;;;;;;;0.67;0.67;;;;;19.00;56.30;101087.72;2072379;28;46221;-61
2023/05/05 02:17:20;;;;;;;;;0.00;0.00;;;;;18.99;56.23;101088.69;2072589;28;46052;-60
2023/05/05 02:18:23;;;;;;;;;1.75;1.75;;;;;19.00;56.12;101081.50;2072422;28;46170;-62
2023/05/05 02:19:29;;;;;;;;;0.75;0.75;;;;;18.99;56.13;101074.38;2072336;28;46331;-61
2023/05/05 02:20:31;;;;;;;;;0.25;0.25;;;;;18.98;56.73;101073.50;2072138;28;45664;-60
2023/05/05 02:21:32;;;;;;;;;0.00;0.00;;;;;18.98;56.25;101076.19;2073067;28;45240;-62
2023/05/05 02:22:33;;;;;;;;;2.00;0.00;;;;;18.98;56.11;101076.19;2072568;28;45690;-61
2023/05/05 02:23:35;;;;;;;;;2.00;1.00;;;;;18.97;56.49;101076.28;2072874;28;46609;-58
2023/05/05 02:24:35;;;;;;;;;0.00;0.00;;;;;18.96;56.28;101074.53;2073026;28;45644;-60
2023/05/05 02:25:40;;;;;;;;;2.67;2.00;;;;;18.96;56.71;101082.59;2072980;28;45994;-62
2023/05/05 02:26:44;;;;;;;;;1.00;0.75;;;;;18.94;56.83;101079.13;2080288;28;46549;-61
2023/05/05 02:27:47;;;;;;;;;1.00;1.00;;;;;18.93;56.69;101096.19;2071977;28;45146;-62
2023/05/05 02:29:18;;;;;;;;;1.00;1.00;;;;;18.91;56.42;101096.25;2072160;28;46781;-62
2023/05/05 02:30:19;;;;;;;;;1.50;0.75;;;;;18.91;57.00;101108.84;2071873;28;46688;-60
2023/05/05 02:31:22;;;;;;;;;0.67;0.67;;;;;18.89;57.13;101110.72;2071220;28;46286;-62
2023/05/05 02:32:31;;;;;;;;;0.00;0.00;;;;;18.86;56.71;101111.78;2071194;28;46377;-61
2023/05/05 02:33:34;;;;;;;;;0.75;0.25;;;;;18.84;57.16;101121.72;2072650;28;46753;-61
2023/05/05 02:34:37;;;;;;;;;0.25;0.00;;;;;18.83;56.97;101119.13;2072778;28;45683;-60
2023/05/05 02:35:40;;;;;;;;;0.00;0.00;;;;;18.81;56.71;101113.81;2071141;28;46883;-59
2023/05/05 02:36:43;;;;;;;;;0.25;0.00;;;;;18.80;57.28;101114.75;2072937;28;46391;-59
2023/05/05 02:37:49;;;;;;;;;1.25;1.25;;;;;18.79;57.29;101115.69;2072612;28;45959;-60
2023/05/05 02:38:54;;;;;;;;;0.00;0.00;;;;;18.77;57.25;101115.78;2072777;28;45708;-61
2023/05/05 02:40:04;;;;;;;;;1.25;0.00;;;;;18.78;57.06;101114.81;2072724;28;45334;-61
2023/05/05 02:41:10;;;;;;;;;1.50;1.00;;;;;18.77;57.59;101112.22;2072241;28;46528;-58
2023/05/05 02:42:17;;;;;;;;;1.25;1.25;;;;;18.79;57.59;101110.31;2080449;28;45639;-62
2023/05/05 02:43:22;;;;;;;;;0.00;0.00;;;;;18.79;57.35;101111.19;2072030;28;45667;-60
2023/05/05 02:44:25;;;;;;;;;0.25;0.00;;;;;18.80;57.40;101107.56;2071986;28;46379;-59
2023/05/05 02:45:27;;;;;;;;;2.00;2.00;;;;;18.80;57.37;101112.97;2071929;28;45694;-61
2023/05/05 02:46:27;;;;;;;;;0.50;0.00;;;;;18.79;57.05;101113.88;2072032;28;46905;-62
2023/05/05 02:47:37;;;;;;;;;0.00;0.00;;;;;18.79;57.15;101111.19;2072674;28;46181;-61
2023/05/05 02:48:37;;;;;;;;;0.75;0.75;;;;;18.80;57.63;101109.38;2072772;28;46192;-60
2023/05/05 02:49:37;;;;;;;;;1.67;0.33;;;;;18.79;57.87;101103.13;2072324;28;45953;-60
2023/05/05 02:50:38;;;;;;;;;0.00;0.00;;;;;18.78;57.29;101103.19;2072788;28;45828;-62
2023/05/05 02:51:38;;;;;;;;;1.00;0.00;;;;;18.79;57.65;101102.25;2072730;28;45749;-60
2023/05/05 02:52:39;;;;;;;;;0.00;0.00;;;;;18.77;58.06;101109.53;2072472;28;45421;-61
2023/05/05 02:53:40;;;;;;;;;1.00;1.00;;;;;18.76;57.49;101103.28;2072554;28;46856;-60
2023/05/05 02:54:40;;;;;;;;;0.00;0.00;;;;;18.76;57.22;101105.97;2072896;28;46212;-61
2023/05/05 02:55:54;;;;;;;;;0.67;0.67;;;;;18.75;57.54;101101.53;2072602;28;46035;-61
2023/05/05 02:56:56;;;;;;;;;1.50;0.75;;;;;18.75;57.69;101108.72;2072739;28;46890;-61
2023/05/05 02:58:06;;;;;;;;;0.50;0.50;;;;;18.75;58.02;101108.72;2072412;28;45581;-60
2023/05/05 02:59:18;;;;;;;;;0.00;0.00;;;;;18.75;58.07;101104.22;2072619;28;46546;-61
2023/05/05 03:00:35;;;;;;;;;1.00;0.25;;;;;18.76;57.58;101102.41;2072041;28;46761;-60
2023/05/05 03:02:20;;;;;;;;;0.25;0.00;;;;;18.76;57.71;101102.41;2072333;28;46347;-61
2023/05/05 03:03:26;;;;;;;;;0.50;0.50;;;;;18.77;57.68;101104.16;2054983;28;46596;-60
2023/05/05 03:04:33;;;;;;;;;1.25;1.25;;;;;18.76;57.55;101103.28;2055346;28;46719;-60
2023/05/05 03:05:44;;;;;;;;;1.00;0.50;;;;;18.77;57.85;101106.84;2055061;28;46482;-61
2023/05/05 03:06:48;;;;;;;;;2.00;2.00;;;;;18.76;58.00;101108.66;2055225;28;45609;-60
2023/05/05 03:07:58;;;;;;;;;1.50;0.00;;;;;18.75;57.89;101106.03;2055246;28;45636;-59
2023/05/05 03:09:20;;;;;;;;;0.00;0.00;;;;;18.75;57.91;101103.34;2055459;28;45588;-61
2023/05/05 03:10:33;;;;;;;;;1.00;0.00;;;;;18.75;58.09;101100.66;2055164;28;46291;-60
2023/05/05 03:11:45;;;;;;;;;0.00;0.00;;;;;18.77;57.95;101101.47;2054411;28;46480;-61
2023/05/05 03:12:45;;;;;;;;;0.00;0.00;;;;;18.76;57.47;101086.28;2055590;28;46104;-63
2023/05/05 03:13:49;;;;;;;;;0.00;0.00;;;;;18.78;57.80;101090.63;2055340;28;46494;-62
2023/05/05 03:14:51;;;;;;;;;1.00;1.00;;;;;18.78;57.51;101087.06;2054904;28;45967;-60
2023/05/05 03:15:52;;;;;;;;;1.00;1.00;;;;;18.76;57.90;101083.59;2055379;28;45519;-60
2023/05/05 03:16:55;;;;;;;;;1.00;0.00;;;;;18.74;58.03;101082.78;2053911;28;45110;-60
2023/05/05 03:17:57;;;;;;;;;0.75;0.75;;;;;18.74;57.67;101086.34;2052878;28;46169;-60
2023/05/05 03:18:59;;;;;;;;;3.00;0.00;;;;;18.73;57.80;101078.38;2046929;28;46077;-59
2023/05/05 03:19:59;;;;;;;;;0.25;0.25;;;;;18.73;57.90;101073.88;2047294;28;46425;-61
2023/05/05 03:21:07;;;;;;;;;1.00;1.00;;;;;18.73;58.25;101068.47;2055171;28;45787;-61
2023/05/05 03:22:07;;;;;;;;;4.00;0.50;;;;;18.72;57.93;101068.56;2055129;28;46492;-59
2023/05/05 03:23:09;;;;;;;;;2.33;0.00;;;;;18.72;58.56;101068.56;2055344;28;46060;-61
2023/05/05 03:24:17;;;;;;;;;1.75;0.50;;;;;18.73;58.25;101073.00;2054843;28;45753;-60
2023/05/05 03:25:17;;;;;;;;;4.25;2.00;;;;;18.70;57.89;101068.66;2055173;28;46482;-61
2023/05/05 03:26:17;;;;;;;;;0.67;0.67;;;;;18.70;57.75;101071.34;2045983;28;45662;-59
2023/05/05 03:27:19;;;;;;;;;1.00;1.00;;;;;18.70;58.35;101074.03;2046867;28;45708;-61
2023/05/05 03:28:19;;;;;;;;;3.25;2.25;;;;;18.69;58.31;101066.91;2055136;28;45235;-59
2023/05/05 03:29:20;;;;;;;;;11.50;10.00;;;;;18.70;58.19;101070.47;2054672;28;46579;-59
2023/05/05 03:30:20;;;;;;;;;3.33;3.33;;;;;18.69;58.57;101074.09;2055141;28;46674;-59
2023/05/05 03:31:20;;;;;;;;;3.00;2.00;;;;;18.68;58.43;101075.91;2055261;28;45268;-61
2023/05/05 03:32:22;;;;;;;;;1.00;1.00;;;;;18.67;58.49;101079.53;2054439;28;46829;-62
2023/05/05 03:33:23;;;;;;;;;0.25;0.25;;;;;18.67;58.30;101087.59;2054728;28;45853;-65
2023/05/05 03:34:23;;;;;;;;;1.00;0.00;;;;;18.68;58.35;101089.38;2055602;28;45742;-62
2023/05/05 03:35:23;;;;;;;;;0.00;0.00;;;;;18.68;58.36;101092.06;2046921;28;45047;-61
2023/05/05 03:36:24;;;;;;;;;1.00;0.00;;;;;18.69;57.81;101095.59;2046920;28;46521;-60
2023/05/05 03:37:24;;;;;;;;;0.00;0.00;;;;;18.68;57.96;101097.44;2054617;28;46055;-60
2023/05/05 03:38:25;;;;;;;;;0.67;0.00;;;;;18.68;58.37;101104.63;2047172;28;45608;-60
2023/05/05 03:39:25;;;;;;;;;2.33;1.33;;;;;18.68;58.43;101105.50;2054237;28;46423;-59
2023/05/05 03:40:25;;;;;;;;;0.00;0.00;;;;;18.68;58.03;101108.19;2067666;28;45539;-61
2023/05/05 03:41:26;;;;;;;;;1.00;1.00;;;;;18.68;58.24;101104.63;2071854;28;45793;-62
2023/05/05 03:42:27;;;;;;;;;1.25;0.75;;;;;18.68;57.86;101099.25;2071885;28;46259;-59
2023/05/05 03:43:27;;;;;;;;;1.67;0.67;;;;;18.67;58.39;101106.41;2071601;28;45789;-62
2023/05/05 03:44:28;;;;;;;;;2.00;1.00;;;;;18.65;58.68;101102.06;2071438;28;45780;-61
2023/05/05 03:45:28;;;;;;;;;0.67;0.67;;;;;18.65;58.38;101099.38;2072069;28;45741;-61
2023/05/05 03:46:28;;;;;;;;;3.00;2.00;;;;;18.66;58.78;101112.72;2072060;28;46547;-60
2023/05/05 03:47:29;;;;;;;;;1.33;1.00;;;;;18.67;58.24;101110.91;2072052;28;45899;-60
2023/05/05 03:48:29;;;;;;;;;2.00;2.00;;;;;18.67;58.64;101108.22;2072266;28;45763;-60
2023/05/05 03:49:29;;;;;;;;;0.00;0.00;;;;;18.68;58.69;101116.25;2072249;28;46417;-61
2023/05/05 03:50:29;;;;;;;;;0.67;0.67;;;;;18.69;58.12;101125.19;2071619;28;45922;-61
2023/05/05 03:51:30;;;;;;;;;1.33;1.33;;;;;18.68;58.05;101121.63;2071868;28;45490;-63
2023/05/05 03:52:30;;;;;;;;;1.00;0.67;;;;;18.66;58.17;101120.81;2072206;28;45787;-63
2023/05/05 03:53:31;;;;;;;;;1.00;1.00;;;;;18.66;58.39;101119.94;2071771;28;46783;-61
2023/05/05 03:54:31;;;;;;;;;0.00;0.00;;;;;18.65;58.34;101126.25;2071978;28;46540;-61
2023/05/05 03:55:31;;;;;;;;;1.33;1.33;;;;;18.65;58.58;101123.56;2072322;28;46064;-61
2023/05/05 03:56:31;;;;;;;;;1.00;1.00;;;;;18.64;58.71;101125.38;2071846;28;45094;-62
2023/05/05 03:57:33;;;;;;;;;1.00;0.00;;;;;18.64;58.54;101128.06;2072055;28;46812;-62
2023/05/05 03:58:33;;;;;;;;;0.00;0.00;;;;;18.64;58.49;101125.38;2071935;28;46559;-62
2023/05/05 03:59:33;;;;;;;;;3.00;0.00;;;;;18.64;58.58;101128.06;2072447;28;45188;-60
2023/05/05 04:00:34;;;;;;;;;0.33;0.33;;;;;18.65;58.49;101127.13;2072026;28;45705;-62
2023/05/05 04:01:34;;;;;;;;;1.00;1.00;;;;;18.64;58.36;101116.44;2072211;28;45946;-61
2023/05/05 04:02:35;;;;;;;;;0.00;0.00;;;;;18.63;58.05;101120.94;2071858;28;45249;-60
2023/05/05 04:03:35;;;;;;;;;0.00;0.00;;;;;18.63;58.32;101123.63;2071638;28;46261;-61
2023/05/05 04:04:35;;;;;;;;;2.00;1.00;;;;;18.62;58.36;101121.88;2071990;28;46196;-61
2023/05/05 04:05:36;;;;;;;;;0.67;0.67;;;;;18.61;58.77;101119.25;2071984;28;46751;-60
2023/05/05 04:06:36;;;;;;;;;0.00;0.00;;;;;18.59;58.45;101122.03;2071995;28;45123;-61
2023/05/05 04:07:36;;;;;;;;;0.00;0.00;;;;;18.61;58.67;101121.94;2072036;28;45949;-60
2023/05/05 04:08:37;;;;;;;;;1.00;0.00;;;;;18.61;58.92;101127.31;2072025;28;45471;-62
2023/05/05 04:09:43;;;;;;;;;1.67;0.00;;;;;18.60;58.00;101129.16;2071458;28;44972;-62
2023/05/05 04:10:44;;;;;;;;;1.50;1.50;;;;;18.59;58.16;101131.91;2072221;28;46118;-62
2023/05/05 04:11:44;;;;;;;;;1.00;1.00;;;;;18.58;58.03;101133.72;2079799;28;46109;-62
2023/05/05 04:12:45;;;;;;;;;0.00;0.00;;;;;18.57;58.43;101131.13;2072268;28;45903;-61
2023/05/05 04:13:45;;;;;;;;;1.00;1.00;;;;;18.56;58.57;101132.94;2072020;28;45830;-60
2023/05/05 04:14:46;;;;;;;;;0.00;0.00;;;;;18.57;58.33;101128.44;2071945;28;46864;-61
2023/05/05 04:15:46;;;;;;;;;0.33;0.00;;;;;18.57;58.76;101132.00;2062919;28;45050;-60
2023/05/05 04:16:46;;;;;;;;;0.67;0.67;;;;;18.58;58.59;101130.16;2062374;28;46954;-60
2023/05/05 04:17:47;;;;;;;;;1.33;1.33;;;;;18.57;58.58;101132.00;2071652;28;46295;-62
2023/05/05 04:18:47;;;;;;;;;0.00;0.00;;;;;18.56;58.27;101130.25;2072045;28;46260;-61
2023/05/05 04:19:48;;;;;;;;;1.00;0.00;;;;;18.54;58.89;101132.97;2071097;28;46306;-62
2023/05/05 04:20:48;;;;;;;;;1.00;0.00;;;;;18.50;58.36;101127.84;2071318;28;46236;-60
2023/05/05 04:21:49;;;;;;;;;1.00;1.00;;;;;18.47;58.85;101139.63;2071648;28;45184;-62
2023/05/05 04:22:50;;;;;;;;;0.25;0.25;;;;;18.44;58.82;101134.41;2071133;28;45754;-62
2023/05/05 04:23:51;;;;;;;;;1.00;1.00;;;;;18.42;58.46;101130.91;2071947;28;45725;-62
2023/05/05 04:24:52;;;;;;;;;1.00;1.00;;;;;18.41;58.79;101133.66;2071466;28;45705;-62
2023/05/05 04:25:52;;;;;;;;;1.67;1.67;;;;;18.40;58.91;101129.22;2071099;28;46795;-60
2023/05/05 04:26:52;;;;;;;;;0.67;0.67;;;;;18.39;58.57;101135.53;2072332;28;45970;-62
2023/05/05 04:27:53;;;;;;;;;0.00;0.00;;;;;18.37;58.82;101140.13;2071657;28;46669;-61
2023/05/05 04:28:54;;;;;;;;;0.00;0.00;;;;;18.34;59.23;101138.47;2071771;28;45913;-63
2023/05/05 04:29:55;;;;;;;;;1.00;1.00;;;;;18.33;59.08;101139.41;2071708;28;46920;-60
2023/05/05 04:30:56;;;;;;;;;1.00;1.00;;;;;18.34;59.38;101129.53;2072022;28;46910;-62
2023/05/05 04:31:56;;;;;;;;;1.00;1.00;;;;;18.35;59.16;101133.94;2071325;28;46645;-59
2023/05/05 04:32:57;;;;;;;;;1.00;1.00;;;;;18.36;59.01;101141.06;2072093;28;45759;-61
2023/05/05 04:33:57;;;;;;;;;0.00;0.00;;;;;18.37;58.79;101145.50;2072032;28;45754;-63
2023/05/05 04:34:57;;;;;;;;;2.00;0.33;;;;;18.36;59.18;101139.25;2071989;28;46885;-60
2023/05/05 04:35:57;;;;;;;;;1.00;0.67;;;;;18.39;59.14;101148.97;2071890;28;46043;-60
2023/05/05 04:36:58;;;;;;;;;1.33;1.33;;;;;18.39;59.43;101148.97;2072144;28;45568;-64
2023/05/05 04:37:58;;;;;;;;;0.00;0.00;;;;;18.39;59.51;101147.16;2072185;28;45127;-61
2023/05/05 04:38:58;;;;;;;;;0.00;0.00;;;;;18.40;59.82;101151.59;2071874;28;45578;-62
2023/05/05 04:39:59;;;;;;;;;2.00;1.00;;;;;18.41;60.30;101152.47;2071501;28;48508;-63
2023/05/05 04:40:59;;;;;;;;;0.33;0.33;;;;;18.41;60.29;101157.84;2071923;28;45515;-61
2023/05/05 04:42:00;;;;;;;;;0.33;0.33;;;;;18.41;60.06;101152.47;2071338;28;46359;-60
2023/05/05 04:43:01;;;;;;;;;2.00;1.00;;;;;18.42;60.07;101154.19;2072034;28;46438;-61
2023/05/05 04:44:01;;;;;;;;;1.00;1.00;;;;;18.42;60.16;101154.19;2071796;28;45123;-62
2023/05/05 04:45:02;;;;;;;;;5.67;2.00;;;;;18.42;60.41;101159.56;2072211;28;45642;-62
2023/05/05 04:46:02;;;;;;;;;2.00;1.33;;;;;18.42;60.09;101163.16;2071645;28;46576;-61
2023/05/05 04:47:03;;;;;;;;;1.00;1.00;;;;;18.41;59.98;101158.69;2071525;28;46291;-61
2023/05/05 04:48:04;;;;;;;;;0.00;0.00;;;;;18.41;60.33;101155.16;2071518;28;46353;-62
2023/05/05 04:49:04;;;;;;;;;0.33;0.33;;;;;18.41;60.44;101156.00;2072418;28;45901;-62
2023/05/05 04:50:05;;;;;;;;;0.33;0.33;;;;;18.41;60.43;101163.22;2071556;28;46473;-62
2023/05/05 04:51:06;;;;;;;;;2.00;2.00;;;;;18.39;60.90;101160.59;2071643;28;45658;-59
2023/05/05 04:52:07;;;;;;;;;4.33;3.00;;;;;18.39;59.81;101160.59;2071560;28;46649;-64
2023/05/05 04:53:07;;;;;;;;;1.00;1.00;;;;;18.38;60.25;101163.34;2071171;28;48036;-61
2023/05/05 04:54:08;;;;;;;;;0.00;0.00;;;;;18.36;60.56;101160.75;2071955;28;46608;-62
2023/05/05 04:55:09;;;;;;;;;1.00;1.00;;;;;18.36;61.07;101158.06;2071875;28;46799;-62